createdAt,value
2022-08-05T00:02:22.395Z,1.83
2022-08-05T00:04:55.247Z,1.88
2022-08-05T00:07:59.161Z,1.60
2022-08-05T00:10:09.280Z,1.77
2022-08-05T00:12:35.886Z,1.80
2022-08-05T00:15:56.162Z,1.95
2022-08-05T00:18:09.285Z,1.85
2022-08-05T00:20:48.979Z,1.70
2022-08-05T00:23:15.711Z,1.80
2022-08-05T00:25:46.036Z,1.80
2022-08-05T00:28:13.532Z,1.65
2022-08-05T00:30:41.228Z,1.88
2022-08-05T00:33:15.548Z,1.58
2022-08-05T00:36:14.910Z,2.15
2022-08-05T00:38:43.671Z,1.45
2022-08-05T00:41:11.732Z,2.00
2022-08-05T00:43:47.034Z,1.70
2022-08-05T00:46:16.408Z,1.80
2022-08-05T00:48:51.401Z,2.13
2022-08-05T00:51:51.618Z,2.03
2022-08-05T00:54:06.351Z,2.03
2022-08-05T00:56:32.996Z,2.20
2022-08-05T00:59:00.212Z,1.98
2022-08-05T01:01:42.026Z,2.30
2022-08-05T01:04:13.706Z,1.92
2022-08-05T01:06:40.990Z,1.80
2022-08-05T01:09:10.404Z,1.52
2022-08-05T01:11:39.523Z,2.03
2022-08-05T01:14:17.992Z,1.85
2022-08-05T01:17:03.182Z,1.92
2022-08-05T01:20:01.137Z,2.15
2022-08-05T01:22:40.742Z,2.10
2022-08-05T01:25:16.348Z,1.63
2022-08-05T01:28:00.562Z,2.00
2022-08-05T01:30:34.661Z,1.85
2022-08-05T01:33:06.140Z,1.83
2022-08-05T01:35:52.214Z,1.75
2022-08-05T01:38:24.688Z,1.77
2022-08-05T01:40:58.708Z,2.03
2022-08-05T01:43:28.008Z,1.92
2022-08-05T01:45:57.039Z,2.00
2022-08-05T01:48:27.181Z,1.85
2022-08-05T01:50:56.466Z,2.10
2022-08-05T01:53:54.604Z,1.58
2022-08-05T01:58:09.845Z,1.90
2022-08-05T01:59:04.133Z,1.67
2022-08-05T02:01:38.779Z,1.40
2022-08-05T02:04:10.173Z,2.00
2022-08-05T02:06:39.017Z,1.70
2022-08-05T02:09:06.907Z,1.73
2022-08-05T02:12:10.181Z,1.73
2022-08-05T02:15:22.142Z,1.90
2022-08-05T02:18:27.900Z,1.65
2022-08-05T02:21:14.856Z,2.17
2022-08-05T02:23:46.020Z,1.98
2022-08-05T02:26:19.252Z,1.98
2022-08-05T02:28:49.958Z,1.70
2022-08-05T02:31:24.574Z,1.67
2022-08-05T02:34:01.126Z,1.90
2022-08-05T02:36:31.518Z,1.60
2022-08-05T02:39:01.693Z,2.40
2022-08-05T02:41:43.405Z,2.10
2022-08-05T02:44:18.087Z,1.83
2022-08-05T02:46:58.376Z,1.48
2022-08-05T02:49:35.855Z,1.65
2022-08-05T02:52:07.760Z,1.55
2022-08-05T02:54:37.427Z,1.77
2022-08-05T02:58:10.840Z,1.80
2022-08-05T02:59:57.601Z,2.08
2022-08-05T03:02:31.896Z,2.40
2022-08-05T03:04:59.775Z,2.10
2022-08-05T03:07:56.568Z,2.00
2022-08-05T03:10:22.011Z,1.70
2022-08-05T03:12:54.171Z,1.42
2022-08-05T03:15:23.661Z,1.90
2022-08-05T03:17:54.264Z,2.10
2022-08-05T03:20:23.673Z,1.75
2022-08-05T03:22:52.185Z,1.63
2022-08-05T03:25:32.402Z,1.70
2022-08-05T03:28:08.794Z,1.58
2022-08-05T03:30:36.534Z,1.75
2022-08-05T03:33:05.705Z,2.03
2022-08-05T03:35:33.717Z,1.73
2022-08-05T03:38:01.554Z,1.70
2022-08-05T03:40:31.863Z,2.03
2022-08-05T03:45:57.484Z,1.83
2022-08-05T03:48:27.502Z,2.03
2022-08-05T03:52:37.396Z,1.58
2022-08-05T03:56:01.329Z,2.20
2022-08-05T03:56:47.794Z,2.08
2022-08-05T04:01:51.032Z,1.90
2022-08-05T04:04:21.516Z,2.28
2022-08-05T04:06:51.073Z,1.90
2022-08-05T04:09:25.821Z,2.17
2022-08-05T04:11:54.341Z,1.83
2022-08-05T04:14:30.250Z,1.90
2022-08-05T04:16:59.584Z,2.00
2022-08-05T04:19:28.434Z,2.42
2022-08-05T04:22:10.216Z,2.50
2022-08-05T04:24:43.965Z,1.90
2022-08-05T04:27:13.153Z,2.70
2022-08-05T04:29:40.234Z,2.20
2022-08-05T04:32:07.945Z,2.20
2022-08-05T04:34:38.523Z,1.98
2022-08-05T04:37:09.758Z,2.22
2022-08-05T04:39:37.555Z,2.38
2022-08-05T04:42:06.242Z,2.00
2022-08-05T04:44:33.206Z,2.08
2022-08-05T04:47:00.103Z,2.10
2022-08-05T04:50:01.022Z,1.90
2022-08-05T04:52:24.070Z,1.90
2022-08-05T04:54:54.721Z,1.98
2022-08-05T04:57:29.016Z,1.90
2022-08-05T04:59:57.308Z,1.92
2022-08-05T05:02:36.357Z,1.67
2022-08-05T05:05:16.908Z,1.80
2022-08-05T05:07:56.194Z,1.90
2022-08-05T05:10:23.522Z,1.65
2022-08-05T05:12:50.562Z,1.90
2022-08-05T05:15:56.157Z,1.77
2022-08-05T05:18:05.004Z,1.40
2022-08-05T05:20:32.436Z,2.00
2022-08-05T05:23:08.147Z,1.63
2022-08-05T05:25:40.902Z,1.58
2022-08-05T05:28:08.712Z,2.10
2022-08-05T05:30:36.704Z,1.90
2022-08-05T05:33:14.178Z,1.50
2022-08-05T05:35:47.429Z,1.90
2022-08-05T05:38:27.216Z,1.67
2022-08-05T05:40:55.840Z,1.70
2022-08-05T05:43:57.193Z,2.03
2022-08-05T05:46:17.815Z,1.58
2022-08-05T05:48:48.197Z,1.38
2022-08-05T05:51:20.042Z,1.60
2022-08-05T05:53:58.147Z,1.77
2022-08-05T05:56:33.110Z,1.42
2022-08-05T05:59:05.325Z,1.60
2022-08-05T06:01:37.599Z,1.70
2022-08-05T06:04:14.505Z,1.40
2022-08-05T06:06:47.788Z,1.83
2022-08-05T06:09:24.616Z,1.70
2022-08-05T06:12:01.014Z,1.33
2022-08-05T06:14:34.805Z,1.05
2022-08-05T06:17:22.446Z,1.50
2022-08-05T06:19:56.567Z,1.20
2022-08-05T06:22:33.602Z,1.13
2022-08-05T06:25:59.324Z,1.13
2022-08-05T06:28:11.537Z,1.42
2022-08-05T06:30:36.754Z,0.85
2022-08-05T06:33:03.424Z,1.15
2022-08-05T06:36:07.066Z,1.33
2022-08-05T06:38:17.385Z,1.52
2022-08-05T06:41:03.475Z,1.73
2022-08-05T06:43:58.516Z,1.48
2022-08-05T06:46:17.421Z,1.40
2022-08-05T06:48:54.600Z,1.13
2022-08-05T06:51:29.416Z,1.20
2022-08-05T06:54:02.002Z,1.50
2022-08-05T06:56:30.211Z,1.25
2022-08-05T06:59:00.540Z,1.40
2022-08-05T07:01:27.630Z,1.50
2022-08-05T07:04:02.271Z,1.40
2022-08-05T07:06:29.627Z,1.40
2022-08-05T07:08:56.267Z,1.52
2022-08-05T07:11:27.917Z,1.30
2022-08-05T07:14:20.180Z,1.30
2022-08-05T07:17:56.964Z,1.40
2022-08-05T07:22:28.890Z,1.30
2022-08-05T07:25:22.182Z,1.42
2022-08-05T07:27:58.374Z,1.35
2022-08-05T07:30:34.490Z,1.23
2022-08-05T07:33:09.590Z,1.50
2022-08-05T07:36:02.053Z,1.38
2022-08-05T07:38:33.910Z,1.50
2022-08-05T07:42:07.027Z,1.38
2022-08-05T07:44:00.541Z,1.75
2022-08-05T07:46:30.974Z,1.42
2022-08-05T07:49:02.589Z,1.42
2022-08-05T07:51:37.159Z,1.73
2022-08-05T07:54:08.554Z,1.48
2022-08-05T07:57:00.887Z,1.83
2022-08-05T07:59:38.967Z,1.90
2022-08-05T08:02:10.677Z,1.70
2022-08-05T08:04:47.927Z,1.67
2022-08-05T08:07:15.628Z,1.27
2022-08-05T08:09:43.039Z,1.70
2022-08-05T08:12:27.243Z,1.85
2022-08-05T08:14:57.067Z,1.60
2022-08-05T08:17:28.906Z,1.67
2022-08-05T08:20:21.053Z,2.75
2022-08-05T08:22:43.554Z,1.50
2022-08-05T08:25:16.471Z,1.70
2022-08-05T08:27:47.827Z,2.17
2022-08-05T08:30:29.475Z,2.00
2022-08-05T08:33:04.554Z,2.10
2022-08-05T08:35:41.213Z,2.55
2022-08-05T08:38:11.855Z,1.63
2022-08-05T08:40:46.732Z,1.83
2022-08-05T08:45:16.227Z,2.15
2022-08-05T08:46:06.254Z,2.10
2022-08-05T08:49:03.251Z,2.13
2022-08-05T08:52:03.821Z,1.98
2022-08-05T08:54:18.297Z,2.03
2022-08-05T08:56:47.675Z,1.95
2022-08-05T08:59:20.740Z,1.92
2022-08-05T09:01:57.591Z,1.35
2022-08-05T09:04:30.674Z,2.10
2022-08-05T09:06:58.370Z,1.67
2022-08-05T09:09:26.016Z,1.80
2022-08-05T09:12:05.972Z,2.03
2022-08-05T09:14:59.203Z,1.65
2022-08-05T09:17:41.417Z,1.75
2022-08-05T09:20:11.929Z,1.48
2022-08-05T09:23:07.783Z,1.50
2022-08-05T09:25:59.980Z,1.92
2022-08-05T09:28:32.537Z,2.05
2022-08-05T09:31:43.508Z,2.03
2022-08-05T09:34:01.315Z,2.38
2022-08-05T09:36:45.802Z,1.73
2022-08-05T09:39:41.187Z,1.92
2022-08-05T09:42:17.575Z,1.52
2022-08-05T09:44:56.446Z,1.80
2022-08-05T09:47:26.072Z,1.60
2022-08-05T09:50:02.516Z,1.48
2022-08-05T09:52:31.075Z,1.73
2022-08-05T09:54:57.880Z,1.38
2022-08-05T09:57:33.763Z,1.63
2022-08-05T10:00:07.704Z,1.58
2022-08-05T10:02:37.708Z,1.65
2022-08-05T10:05:32.969Z,1.40
2022-08-05T10:08:36.586Z,1.88
2022-08-05T10:10:54.347Z,1.23
2022-08-05T10:13:47.144Z,1.50
2022-08-05T10:16:41.594Z,1.30
2022-08-05T10:19:11.758Z,1.25
2022-08-05T10:21:40.234Z,1.17
2022-08-05T10:24:13.482Z,1.13
2022-08-05T10:26:51.893Z,1.30
2022-08-05T10:29:24.023Z,1.20
2022-08-05T10:32:53.606Z,1.10
2022-08-05T10:35:00.586Z,1.58
2022-08-05T10:37:44.392Z,1.02
2022-08-05T10:40:36.347Z,1.20
2022-08-05T10:43:13.192Z,1.40
2022-08-05T10:45:42.373Z,2.55
2022-08-05T10:48:34.456Z,1.40
2022-08-05T10:51:21.824Z,1.20
2022-08-05T10:54:23.066Z,1.08
2022-08-05T10:56:55.876Z,1.35
2022-08-05T11:00:03.480Z,1.30
2022-08-05T11:02:34.691Z,1.42
2022-08-05T11:05:06.962Z,1.48
2022-08-05T11:08:01.322Z,1.70
2022-08-05T11:10:27.792Z,1.77
2022-08-05T11:13:01.266Z,1.52
2022-08-05T11:16:01.032Z,1.45
2022-08-05T11:18:32.590Z,1.20
2022-08-05T11:21:06.133Z,1.15
2022-08-05T11:24:03.952Z,1.08
2022-08-05T11:26:43.240Z,1.50
2022-08-05T11:29:42.655Z,1.27
2022-08-05T11:32:25.697Z,1.45
2022-08-05T11:34:54.364Z,1.20
2022-08-05T11:38:28.067Z,1.20
2022-08-05T11:41:03.452Z,1.23
2022-08-05T11:44:21.772Z,1.20
2022-08-05T11:47:11.180Z,1.20
2022-08-05T11:49:42.756Z,1.10
2022-08-05T11:52:11.798Z,1.00
2022-08-05T11:54:41.634Z,1.35
2022-08-05T11:57:24.840Z,1.58
2022-08-05T11:59:53.539Z,1.10
2022-08-05T12:02:31.736Z,1.40
2022-08-05T12:05:06.936Z,1.20
2022-08-05T12:08:04.395Z,1.70
2022-08-05T12:10:43.109Z,1.38
2022-08-05T12:13:15.661Z,1.13
2022-08-05T12:15:45.274Z,1.42
2022-08-05T12:18:20.589Z,1.25
2022-08-05T12:20:50.877Z,1.05
2022-08-05T12:23:17.517Z,1.40
2022-08-05T12:25:56.690Z,1.10
2022-08-05T12:28:50.008Z,1.55
2022-08-05T12:31:23.468Z,1.13
2022-08-05T12:34:07.670Z,1.13
2022-08-05T12:36:35.701Z,1.30
2022-08-05T12:39:05.621Z,1.40
2022-08-05T12:41:36.015Z,1.20
2022-08-05T12:44:14.429Z,1.23
2022-08-05T12:46:53.485Z,1.80
2022-08-05T12:49:21.002Z,1.30
2022-08-05T12:52:13.117Z,1.13
2022-08-05T12:54:49.670Z,1.23
2022-08-05T12:57:17.535Z,1.15
2022-08-05T13:01:56.677Z,1.98
2022-08-05T13:02:31.553Z,1.15
2022-08-05T13:04:58.712Z,1.40
2022-08-05T13:07:56.047Z,1.33
2022-08-05T13:10:15.120Z,1.30
2022-08-05T13:12:57.265Z,1.73
2022-08-05T13:15:41.428Z,1.23
2022-08-05T13:18:19.924Z,1.30
2022-08-05T13:20:48.985Z,1.20
2022-08-05T13:23:16.396Z,1.23
2022-08-05T13:25:52.151Z,1.30
2022-08-05T13:28:25.869Z,0.98
2022-08-05T13:30:53.335Z,1.20
2022-08-05T13:34:22.322Z,1.90
2022-08-05T13:36:09.179Z,1.40
2022-08-05T13:38:42.013Z,1.40
2022-08-05T13:41:12.535Z,1.20
2022-08-05T13:43:44.853Z,1.27
2022-08-05T13:46:37.709Z,1.20
2022-08-05T13:49:10.103Z,1.67
2022-08-05T13:51:40.993Z,1.50
2022-08-05T13:54:13.113Z,1.67
2022-08-05T13:56:45.371Z,1.50
2022-08-05T13:59:24.735Z,1.35
2022-08-05T14:01:57.489Z,1.27
2022-08-05T14:04:49.105Z,1.17
2022-08-05T14:07:25.862Z,1.30
2022-08-05T14:10:10.711Z,1.23
2022-08-05T14:12:37.492Z,1.08
2022-08-05T14:16:05.261Z,1.40
2022-08-05T14:17:54.895Z,1.30
2022-08-05T14:20:27.383Z,1.27
2022-08-05T14:22:54.516Z,1.20
2022-08-05T14:25:22.531Z,1.25
2022-08-05T14:27:54.667Z,0.95
2022-08-05T14:30:21.651Z,1.25
2022-08-05T14:32:48.933Z,1.30
2022-08-05T14:35:16.241Z,1.20
2022-08-05T14:37:52.121Z,1.20
2022-08-05T14:40:24.430Z,1.17
2022-08-05T14:42:52.198Z,1.05
2022-08-05T14:45:18.867Z,1.10
2022-08-05T14:48:05.198Z,1.02
2022-08-05T14:50:32.747Z,1.50
2022-08-05T14:53:02.879Z,1.00
2022-08-05T14:58:11.157Z,1.27
2022-08-05T15:00:58.576Z,1.23
2022-08-05T15:03:33.696Z,1.33
2022-08-05T15:06:07.818Z,1.10
2022-08-05T15:08:59.822Z,1.00
2022-08-05T15:11:52.325Z,1.30
2022-08-05T15:14:33.233Z,1.05
2022-08-05T15:17:01.247Z,1.20
2022-08-05T15:19:27.951Z,1.30
2022-08-05T15:21:57.946Z,1.30
2022-08-05T15:26:53.806Z,1.17
2022-08-05T15:29:22.957Z,1.10
2022-08-05T15:31:53.111Z,1.13
2022-08-05T15:34:32.587Z,1.05
2022-08-05T15:37:06.393Z,1.00
2022-08-05T15:40:58.916Z,1.40
2022-08-05T15:42:54.747Z,1.30
2022-08-05T15:45:15.310Z,1.20
2022-08-05T15:47:43.154Z,0.88
2022-08-05T15:50:15.981Z,0.90
2022-08-05T15:52:53.774Z,1.30
2022-08-05T15:56:04.108Z,1.40
2022-08-05T15:58:19.761Z,1.20
2022-08-05T16:03:36.383Z,1.50
2022-08-05T16:06:09.041Z,1.23
2022-08-05T16:08:38.753Z,1.20
2022-08-05T16:11:07.005Z,1.15
2022-08-05T16:13:35.176Z,1.15
2022-08-05T16:16:03.847Z,1.40
2022-08-05T16:18:32.970Z,1.35
2022-08-05T16:21:03.982Z,1.60
2022-08-05T16:23:33.115Z,1.60
2022-08-05T16:26:18.245Z,1.85
2022-08-05T16:28:44.885Z,1.30
2022-08-05T16:31:11.482Z,1.50
2022-08-05T16:33:41.593Z,1.33
2022-08-05T16:38:35.683Z,1.25
2022-08-05T16:42:11.955Z,1.50
2022-08-05T16:43:49.932Z,1.35
2022-08-05T16:46:24.548Z,1.40
2022-08-05T16:48:51.972Z,1.40
2022-08-05T16:51:19.418Z,1.30
2022-08-05T16:54:03.947Z,1.20
2022-08-05T16:56:35.009Z,1.33
2022-08-05T16:59:08.499Z,1.20
2022-08-05T17:01:54.084Z,1.63
2022-08-05T17:04:27.742Z,1.75
2022-08-05T17:07:03.557Z,1.33
2022-08-05T17:09:38.875Z,1.30
2022-08-05T17:12:51.058Z,1.15
2022-08-05T17:15:19.241Z,1.50
2022-08-05T17:17:54.552Z,1.33
2022-08-05T17:20:22.088Z,1.48
2022-08-05T17:22:55.094Z,1.30
2022-08-05T17:25:39.708Z,1.42
2022-08-05T17:28:07.764Z,1.83
2022-08-05T17:30:50.610Z,1.65
2022-08-05T17:33:19.987Z,2.50
2022-08-05T17:36:08.983Z,1.70
2022-08-05T17:38:33.992Z,1.70
2022-08-05T17:41:01.652Z,1.63
2022-08-05T17:43:50.276Z,2.17
2022-08-05T17:46:15.471Z,1.70
2022-08-05T17:48:44.984Z,1.67
2022-08-05T17:51:14.467Z,2.08
2022-08-05T17:53:54.413Z,1.70
2022-08-05T17:56:22.786Z,1.63
2022-08-05T17:58:49.746Z,1.77
2022-08-05T18:01:18.373Z,1.50
2022-08-05T18:03:58.376Z,2.00
2022-08-05T18:06:31.143Z,1.80
2022-08-05T18:08:58.343Z,1.83
2022-08-05T18:11:33.221Z,2.00
2022-08-05T18:14:07.136Z,2.05
2022-08-05T18:16:35.529Z,1.92
2022-08-05T18:19:18.308Z,2.00
2022-08-05T18:22:07.213Z,2.60
2022-08-05T18:24:36.350Z,2.10
2022-08-05T18:27:03.004Z,2.30
2022-08-05T18:29:40.307Z,1.88
2022-08-05T18:32:13.094Z,2.03
2022-08-05T18:34:42.746Z,2.38
2022-08-05T18:37:12.304Z,1.93
2022-08-05T18:40:31.032Z,2.25
2022-08-05T18:42:26.252Z,2.40
2022-08-05T18:44:56.412Z,2.20
2022-08-05T18:47:26.476Z,2.38
2022-08-05T18:50:12.129Z,2.28
2022-08-05T18:52:41.760Z,1.98
2022-08-05T18:55:18.814Z,2.65
2022-08-05T18:57:53.090Z,2.53
2022-08-05T19:00:28.605Z,2.30
2022-08-05T19:02:56.426Z,2.47
2022-08-05T19:06:13.612Z,2.67
2022-08-05T19:08:13.572Z,2.47
2022-08-05T19:13:12.395Z,2.55
2022-08-05T19:15:59.791Z,2.92
2022-08-05T19:18:30.248Z,2.50
2022-08-05T19:20:59.433Z,2.55
2022-08-05T19:24:06.934Z,2.58
2022-08-05T19:26:13.935Z,2.50
2022-08-05T19:28:42.180Z,2.80
2022-08-05T19:31:13.653Z,2.90
2022-08-05T19:33:48.147Z,2.80
2022-08-05T19:36:23.840Z,2.80
2022-08-05T19:38:51.024Z,3.38
2022-08-05T19:41:17.672Z,2.70
2022-08-05T19:44:05.863Z,2.67
2022-08-05T19:46:37.823Z,2.67
2022-08-05T19:49:07.762Z,2.72
2022-08-05T19:52:09.394Z,2.30
2022-08-05T19:54:31.548Z,2.40
2022-08-05T19:57:06.866Z,1.90
2022-08-05T19:59:55.889Z,2.50
2022-08-05T20:02:26.196Z,2.15
2022-08-05T20:04:54.777Z,2.20
2022-08-05T20:07:47.503Z,2.20
2022-08-05T20:10:13.224Z,1.98
2022-08-05T20:12:48.122Z,2.20
2022-08-05T20:15:48.734Z,1.92
2022-08-05T20:18:10.267Z,2.40
2022-08-05T20:20:52.124Z,2.35
2022-08-05T20:23:22.651Z,2.33
2022-08-05T20:25:49.274Z,2.90
2022-08-05T20:28:19.039Z,2.53
2022-08-05T20:30:45.738Z,3.08
2022-08-05T20:33:14.553Z,2.47
2022-08-05T20:35:45.534Z,3.30
2022-08-05T20:38:20.041Z,2.80
2022-08-05T20:40:55.528Z,3.03
2022-08-05T20:43:33.210Z,2.20
2022-08-05T20:46:18.220Z,1.77
2022-08-05T20:48:45.430Z,1.80
2022-08-05T20:51:17.695Z,1.90
2022-08-05T20:53:44.320Z,1.83
2022-08-05T20:56:28.043Z,1.42
2022-08-05T20:58:56.753Z,1.75
2022-08-05T21:01:37.316Z,1.38
2022-08-05T21:04:07.235Z,1.40
2022-08-05T21:06:37.214Z,1.35
2022-08-05T21:09:07.494Z,1.40
2022-08-05T21:12:08.890Z,1.42
2022-08-05T21:14:26.723Z,1.20
2022-08-05T21:16:53.461Z,1.70
2022-08-05T21:19:20.286Z,1.20
2022-08-05T21:21:50.563Z,1.48
2022-08-05T21:24:19.560Z,1.30
2022-08-05T21:26:58.539Z,1.80
2022-08-05T21:29:32.062Z,1.60
2022-08-05T21:32:00.253Z,1.80
2022-08-05T21:34:28.313Z,2.17
2022-08-05T21:36:58.275Z,1.73
2022-08-05T21:39:26.502Z,1.50
2022-08-05T21:42:01.705Z,1.45
2022-08-05T21:44:30.344Z,1.38
2022-08-05T21:46:58.189Z,1.33
2022-08-05T21:49:58.813Z,1.33
2022-08-05T21:52:21.487Z,1.10
2022-08-05T21:54:54.935Z,0.90
2022-08-05T21:57:31.633Z,0.93
2022-08-05T22:00:11.101Z,0.80
2022-08-05T22:02:42.495Z,0.88
2022-08-05T22:05:10.629Z,0.73
2022-08-05T22:07:54.265Z,0.95
2022-08-05T22:10:26.635Z,1.30
2022-08-05T22:12:59.156Z,0.90
2022-08-05T22:16:02.070Z,0.70
2022-08-05T22:18:25.705Z,0.65
2022-08-05T22:20:52.787Z,1.15
2022-08-05T22:24:01.693Z,0.60
2022-08-05T22:26:43.204Z,0.75
2022-08-05T22:29:17.470Z,0.98
2022-08-05T22:31:45.734Z,1.00
2022-08-05T22:34:25.725Z,0.90
2022-08-05T22:36:56.401Z,0.57
2022-08-05T22:39:28.593Z,0.75
2022-08-05T22:42:09.771Z,0.73
2022-08-05T22:44:39.952Z,0.93
2022-08-05T22:47:06.951Z,0.80
2022-08-05T22:50:18.410Z,0.90
2022-08-05T22:52:30.265Z,0.90
2022-08-05T22:55:01.688Z,1.17
2022-08-05T22:57:34.357Z,1.30
2022-08-05T23:00:08.107Z,1.27
2022-08-05T23:02:37.676Z,1.05
2022-08-05T23:05:14.715Z,1.60
2022-08-05T23:07:48.191Z,1.65
2022-08-05T23:10:16.493Z,1.38
2022-08-05T23:12:47.744Z,1.35
2022-08-05T23:15:18.521Z,0.98
2022-08-05T23:18:01.105Z,1.27
2022-08-05T23:20:29.842Z,1.52
2022-08-05T23:22:56.654Z,1.27
2022-08-05T23:25:51.364Z,1.15
2022-08-05T23:28:12.588Z,1.50
2022-08-05T23:30:43.910Z,1.55
2022-08-05T23:33:25.875Z,1.23
2022-08-05T23:36:06.501Z,1.10
2022-08-05T23:38:37.095Z,1.50
2022-08-05T23:41:03.766Z,1.23
2022-08-05T23:44:02.993Z,1.58
2022-08-05T23:46:20.262Z,1.20
2022-08-05T23:49:00.346Z,1.40
2022-08-05T23:51:56.263Z,1.30
2022-08-05T23:54:26.311Z,1.42
2022-08-05T23:57:03.950Z,1.60
